createdAt,value
2022-10-20T00:01:50.002Z,5.65
2022-10-20T00:04:16.491Z,6.72
2022-10-20T00:06:42.957Z,8.60
2022-10-20T00:09:09.621Z,5.32
2022-10-20T00:11:36.467Z,4.63
2022-10-20T00:14:03.330Z,5.95
2022-10-20T00:16:31.426Z,6.05
2022-10-20T00:18:58.605Z,6.15
2022-10-20T00:21:27.338Z,2.47
2022-10-20T00:23:54.257Z,6.25
2022-10-20T00:26:26.283Z,7.03
2022-10-20T00:31:22.287Z,4.93
2022-10-20T00:33:48.874Z,6.80
2022-10-20T00:36:17.698Z,6.50
2022-10-20T00:38:44.643Z,4.35
2022-10-20T00:41:21.770Z,6.07
2022-10-20T00:43:51.113Z,5.72
2022-10-20T00:46:33.513Z,4.78
2022-10-20T00:49:06.661Z,4.90
2022-10-20T00:51:34.493Z,4.78
2022-10-20T00:54:10.520Z,4.97
2022-10-20T00:56:42.830Z,4.80
2022-10-20T00:59:11.751Z,5.72
2022-10-20T01:01:39.986Z,4.88
2022-10-20T01:04:07.121Z,6.18
2022-10-20T01:06:33.689Z,5.43
2022-10-20T01:09:00.724Z,5.65
2022-10-20T01:11:33.686Z,6.05
2022-10-20T01:14:02.992Z,5.30
2022-10-20T01:16:50.259Z,5.38
2022-10-20T01:19:54.811Z,4.75
2022-10-20T01:22:41.608Z,5.38
2022-10-20T01:25:26.398Z,6.55
2022-10-20T01:28:04.236Z,3.47
2022-10-20T01:30:32.853Z,7.05
2022-10-20T01:33:17.301Z,4.60
2022-10-20T01:36:04.707Z,6.82
2022-10-20T01:38:44.100Z,5.40
2022-10-20T01:41:34.293Z,5.30
2022-10-20T01:44:07.158Z,5.25
2022-10-20T01:46:36.867Z,4.20
2022-10-20T01:49:05.271Z,4.57
2022-10-20T01:51:32.825Z,5.47
2022-10-20T01:53:59.370Z,5.53
2022-10-20T01:57:09.468Z,6.57
2022-10-20T02:00:01.423Z,8.45
2022-10-20T02:02:30.941Z,8.10
2022-10-20T02:05:12.569Z,6.85
2022-10-20T02:07:41.812Z,3.20
2022-10-20T02:10:19.125Z,4.70
2022-10-20T02:12:50.649Z,6.43
2022-10-20T02:15:23.308Z,3.95
2022-10-20T02:17:55.170Z,5.28
2022-10-20T02:20:21.865Z,4.25
2022-10-20T02:22:49.433Z,5.63
2022-10-20T02:25:16.420Z,4.43
2022-10-20T02:27:47.586Z,3.40
2022-10-20T02:30:17.314Z,6.80
2022-10-20T02:32:49.250Z,9.02
2022-10-20T02:35:21.640Z,5.80
2022-10-20T02:37:48.067Z,5.72
2022-10-20T02:40:15.604Z,5.32
2022-10-20T02:42:43.332Z,5.85
2022-10-20T02:45:11.056Z,5.20
2022-10-20T02:47:37.869Z,6.88
2022-10-20T02:50:06.039Z,5.97
2022-10-20T02:52:32.511Z,3.13
2022-10-20T02:54:58.966Z,7.70
2022-10-20T02:57:25.528Z,6.32
2022-10-20T02:59:52.479Z,5.93
2022-10-20T03:02:18.992Z,6.57
2022-10-20T03:04:45.464Z,3.90
2022-10-20T03:07:12.072Z,5.05
2022-10-20T03:09:38.682Z,7.93
2022-10-20T03:12:05.557Z,7.03
2022-10-20T03:14:32.076Z,8.18
2022-10-20T03:16:58.595Z,5.53
2022-10-20T03:19:25.175Z,6.97
2022-10-20T03:21:51.624Z,11.75
2022-10-20T03:24:18.104Z,4.45
2022-10-20T03:26:44.573Z,4.68
2022-10-20T03:29:11.075Z,5.43
2022-10-20T03:31:37.672Z,7.18
2022-10-20T03:34:04.254Z,7.68
2022-10-20T03:36:30.728Z,7.53
2022-10-20T03:38:57.177Z,8.13
2022-10-20T03:41:23.678Z,7.43
2022-10-20T03:43:50.177Z,5.20
2022-10-20T03:46:16.821Z,4.65
2022-10-20T03:48:43.297Z,7.68
2022-10-20T03:51:13.187Z,4.05
2022-10-20T03:53:39.683Z,5.63
2022-10-20T03:56:07.974Z,3.97
2022-10-20T03:58:35.213Z,6.60
2022-10-20T04:01:02.553Z,4.95
2022-10-20T04:03:29.027Z,4.80
2022-10-20T04:05:55.468Z,5.32
2022-10-20T04:08:21.935Z,7.57
2022-10-20T04:10:48.421Z,6.38
2022-10-20T04:13:14.900Z,6.53
2022-10-20T04:15:41.399Z,6.15
2022-10-20T04:18:07.871Z,6.35
2022-10-20T04:20:34.325Z,6.38
2022-10-20T04:23:01.631Z,3.65
2022-10-20T04:25:28.390Z,9.88
2022-10-20T04:27:54.877Z,7.03
2022-10-20T04:30:21.407Z,5.47
2022-10-20T04:32:47.855Z,8.50
2022-10-20T04:35:14.381Z,11.52
2022-10-20T04:37:40.816Z,9.00
2022-10-20T04:40:07.910Z,10.82
2022-10-20T04:42:34.362Z,11.55
2022-10-20T04:45:00.877Z,15.07
2022-10-20T04:47:31.916Z,20.75
2022-10-20T04:49:58.398Z,24.88
2022-10-20T04:52:24.874Z,28.10
2022-10-20T04:54:51.431Z,21.77
2022-10-20T04:57:17.885Z,29.10
2022-10-20T04:59:44.361Z,30.80
2022-10-20T05:02:11.387Z,50.30
2022-10-20T05:04:37.856Z,48.10
2022-10-20T05:07:04.364Z,34.00
2022-10-20T05:09:31.507Z,24.15
2022-10-20T05:11:57.944Z,13.85
2022-10-20T05:14:24.770Z,8.73
2022-10-20T05:16:51.507Z,7.75
2022-10-20T05:19:18.647Z,14.10
2022-10-20T05:21:45.559Z,14.07
2022-10-20T05:24:18.233Z,14.60
2022-10-20T05:26:47.513Z,14.05
2022-10-20T05:29:14.219Z,12.05
2022-10-20T05:31:42.944Z,12.13
2022-10-20T05:34:10.755Z,9.60
2022-10-20T05:36:37.562Z,10.32
2022-10-20T05:39:04.406Z,7.40
2022-10-20T05:41:34.876Z,12.95
2022-10-20T05:44:06.087Z,9.73
2022-10-20T05:46:34.943Z,7.82
2022-10-20T05:49:03.328Z,8.02
2022-10-20T05:51:33.712Z,10.15
2022-10-20T05:54:00.268Z,12.35
2022-10-20T05:56:28.462Z,9.52
2022-10-20T05:58:55.943Z,9.50
2022-10-20T06:01:25.500Z,6.97
2022-10-20T06:03:56.112Z,8.50
2022-10-20T06:06:25.527Z,8.23
2022-10-20T06:08:53.557Z,10.82
2022-10-20T06:11:21.969Z,10.50
2022-10-20T06:13:51.900Z,8.55
2022-10-20T06:16:22.780Z,10.80
2022-10-20T06:18:49.899Z,8.55
2022-10-20T06:21:19.250Z,10.88
2022-10-20T06:23:45.782Z,11.93
2022-10-20T06:26:14.842Z,13.13
2022-10-20T06:28:41.551Z,11.88
2022-10-20T06:31:20.315Z,10.82
2022-10-20T06:33:47.567Z,11.45
2022-10-20T06:36:15.140Z,9.15
2022-10-20T06:38:41.950Z,12.43
2022-10-20T06:41:11.628Z,9.07
2022-10-20T06:43:38.262Z,8.35
2022-10-20T06:46:06.768Z,9.98
2022-10-20T06:48:35.018Z,8.73
2022-10-20T06:51:05.002Z,9.02
2022-10-20T06:53:32.111Z,6.95
2022-10-20T06:56:00.875Z,12.27
2022-10-20T06:58:27.977Z,11.40
2022-10-20T07:01:23.348Z,14.73
2022-10-20T07:03:51.535Z,11.85
2022-10-20T07:06:23.748Z,12.55
2022-10-20T07:08:53.806Z,10.82
2022-10-20T07:11:22.508Z,10.93
2022-10-20T07:13:49.382Z,12.63
2022-10-20T07:16:20.479Z,11.98
2022-10-20T07:18:47.525Z,11.90
2022-10-20T07:21:16.593Z,17.23
2022-10-20T07:23:43.441Z,13.93
2022-10-20T07:26:16.640Z,14.93
2022-10-20T07:28:45.851Z,11.18
2022-10-20T07:31:18.884Z,15.23
2022-10-20T07:34:00.905Z,15.55
2022-10-20T07:36:36.076Z,15.65
2022-10-20T07:39:04.586Z,12.80
2022-10-20T07:41:31.468Z,18.25
2022-10-20T07:43:58.067Z,14.88
2022-10-20T07:46:25.311Z,15.75
2022-10-20T07:48:52.316Z,16.17
2022-10-20T07:51:21.500Z,14.45
2022-10-20T07:53:49.069Z,17.13
2022-10-20T07:56:15.791Z,15.77
2022-10-20T07:58:43.314Z,15.60
2022-10-20T08:01:10.440Z,16.90
2022-10-20T08:03:37.342Z,20.85
2022-10-20T08:06:05.250Z,20.77
2022-10-20T08:08:32.718Z,18.55
2022-10-20T08:11:00.144Z,20.63
2022-10-20T08:13:27.444Z,17.63
2022-10-20T08:15:54.885Z,15.18
2022-10-20T08:18:24.886Z,17.20
2022-10-20T08:20:51.379Z,14.80
2022-10-20T08:23:18.140Z,18.33
2022-10-20T08:25:44.660Z,13.55
2022-10-20T08:28:11.178Z,14.50
2022-10-20T08:30:37.904Z,15.50
2022-10-20T08:33:04.574Z,15.35
2022-10-20T08:35:31.083Z,14.68
2022-10-20T08:37:57.552Z,12.95
2022-10-20T08:40:28.306Z,15.35
2022-10-20T08:42:55.676Z,16.20
2022-10-20T08:45:25.700Z,15.93
2022-10-20T08:47:54.278Z,13.43
2022-10-20T08:50:21.995Z,13.68
2022-10-20T08:52:56.118Z,14.10
2022-10-20T08:55:29.121Z,14.40
2022-10-20T08:58:05.122Z,12.10
2022-10-20T09:00:32.905Z,14.98
2022-10-20T09:03:15.718Z,17.60
2022-10-20T09:05:45.776Z,16.60
2022-10-20T09:08:12.319Z,20.30
2022-10-20T09:10:45.543Z,19.63
2022-10-20T09:13:21.126Z,24.55
2022-10-20T09:15:49.696Z,24.63
2022-10-20T09:18:16.467Z,19.70
2022-10-20T09:20:47.362Z,19.08
2022-10-20T09:23:40.026Z,19.88
2022-10-20T09:29:14.164Z,15.07
2022-10-20T09:31:55.253Z,16.92
2022-10-20T09:34:30.275Z,17.90
2022-10-20T09:37:03.297Z,17.45
2022-10-20T09:39:38.247Z,11.95
2022-10-20T09:42:14.317Z,15.73
2022-10-20T09:45:16.448Z,14.18
2022-10-20T09:47:45.696Z,11.27
2022-10-20T09:50:20.632Z,11.75
2022-10-20T09:52:48.176Z,11.65
2022-10-20T09:55:29.116Z,11.75
2022-10-20T09:57:58.031Z,13.10
2022-10-20T10:00:38.305Z,12.32
2022-10-20T10:03:23.798Z,11.95
2022-10-20T10:06:00.580Z,15.70
2022-10-20T10:08:45.474Z,16.90
2022-10-20T10:11:17.416Z,12.18
2022-10-20T10:13:47.430Z,15.48
2022-10-20T10:16:24.098Z,15.07
2022-10-20T10:19:03.024Z,16.05
2022-10-20T10:21:42.845Z,16.67
2022-10-20T10:24:28.038Z,14.13
2022-10-20T10:26:56.579Z,13.80
2022-10-20T10:29:23.041Z,15.07
2022-10-20T10:31:58.571Z,11.73
2022-10-20T10:34:36.528Z,13.80
2022-10-20T10:37:03.148Z,12.48
2022-10-20T10:39:33.910Z,12.02
2022-10-20T10:42:19.816Z,12.70
2022-10-20T10:45:12.214Z,14.98
2022-10-20T10:50:35.415Z,11.70
2022-10-20T10:53:13.341Z,11.68
2022-10-20T10:56:00.311Z,16.67
2022-10-20T10:58:47.951Z,13.68
2022-10-20T11:01:35.104Z,9.32
2022-10-20T11:04:29.293Z,11.95
2022-10-20T11:07:02.283Z,12.45
2022-10-20T11:09:52.169Z,11.55
2022-10-20T11:12:18.623Z,9.32
2022-10-20T11:15:04.758Z,13.70
2022-10-20T11:17:48.920Z,8.20
2022-10-20T11:20:27.099Z,11.63
2022-10-20T11:23:27.509Z,10.02
2022-10-20T11:25:59.728Z,12.55
2022-10-20T11:28:44.233Z,9.82
2022-10-20T11:31:29.407Z,9.85
2022-10-20T11:34:06.880Z,10.82
2022-10-20T11:36:38.942Z,10.88
2022-10-20T11:41:52.301Z,11.15
2022-10-20T11:44:30.933Z,8.20
2022-10-20T11:47:03.966Z,7.45
2022-10-20T11:49:33.193Z,7.03
2022-10-20T11:52:17.894Z,10.13
2022-10-20T11:55:15.265Z,7.75
2022-10-20T11:58:00.403Z,6.07
2022-10-20T12:00:42.857Z,9.45
2022-10-20T12:03:27.652Z,9.55
2022-10-20T12:06:23.471Z,7.20
2022-10-20T12:09:23.831Z,9.60
2022-10-20T12:12:02.444Z,7.65
2022-10-20T12:14:42.494Z,8.88
2022-10-20T12:17:36.145Z,7.20
2022-10-20T12:20:20.665Z,7.85
2022-10-20T12:22:52.399Z,8.82
2022-10-20T12:25:39.794Z,7.18
2022-10-20T12:28:32.797Z,7.63
2022-10-20T12:31:03.119Z,5.15
2022-10-20T12:33:41.791Z,7.28
2022-10-20T12:36:17.055Z,6.53
2022-10-20T12:38:50.843Z,10.70
2022-10-20T12:41:35.729Z,6.35
2022-10-20T12:44:05.734Z,5.78
2022-10-20T12:46:35.664Z,8.88
2022-10-20T12:49:08.096Z,9.00
2022-10-20T12:51:48.387Z,11.20
2022-10-20T12:54:27.323Z,11.55
2022-10-20T12:56:59.273Z,7.88
2022-10-20T13:02:10.635Z,10.68
2022-10-20T13:04:59.839Z,10.60
2022-10-20T13:07:48.235Z,9.75
2022-10-20T13:10:26.897Z,15.38
2022-10-20T13:12:54.451Z,9.30
2022-10-20T13:15:22.332Z,9.32
2022-10-20T13:17:56.521Z,12.32
2022-10-20T13:20:41.145Z,8.05
2022-10-20T13:23:12.770Z,9.55
2022-10-20T13:25:44.872Z,10.45
2022-10-20T13:28:19.030Z,9.52
2022-10-20T13:31:10.176Z,8.80
2022-10-20T13:36:48.187Z,11.50
2022-10-20T13:39:48.728Z,7.97
2022-10-20T13:42:43.342Z,10.48
2022-10-20T13:45:37.493Z,11.60
2022-10-20T13:48:11.497Z,6.82
2022-10-20T13:50:56.800Z,9.80
2022-10-20T13:53:27.857Z,11.38
2022-10-20T13:55:59.627Z,10.65
2022-10-20T13:58:27.006Z,9.43
2022-10-20T14:01:03.868Z,9.50
2022-10-20T14:03:33.260Z,13.05
2022-10-20T14:05:59.693Z,9.38
2022-10-20T14:08:26.558Z,10.88
2022-10-20T14:11:08.343Z,7.25
2022-10-20T14:13:36.349Z,8.52
2022-10-20T14:16:06.110Z,7.65
2022-10-20T14:18:39.900Z,8.10
2022-10-20T14:21:19.107Z,10.20
2022-10-20T14:23:49.277Z,6.97
2022-10-20T14:26:20.117Z,8.80
2022-10-20T14:28:48.786Z,9.65
2022-10-20T14:31:15.585Z,9.50
2022-10-20T14:33:46.749Z,9.43
2022-10-20T14:36:25.299Z,10.30
2022-10-20T14:38:54.880Z,11.73
2022-10-20T14:41:30.311Z,12.30
2022-10-20T14:44:08.535Z,12.30
2022-10-20T14:46:44.922Z,10.93
2022-10-20T14:49:38.017Z,10.70
2022-10-20T14:52:21.294Z,11.40
2022-10-20T14:54:50.831Z,10.38
2022-10-20T14:57:17.226Z,10.43
2022-10-20T14:59:52.460Z,11.57
2022-10-20T15:02:25.284Z,12.00
2022-10-20T15:04:54.576Z,10.95
2022-10-20T15:07:28.271Z,8.35
2022-10-20T15:10:05.155Z,12.98
2022-10-20T15:12:43.706Z,8.82
2022-10-20T15:15:10.135Z,8.00
2022-10-20T15:17:47.733Z,9.52
2022-10-20T15:20:29.346Z,8.32
2022-10-20T15:23:23.083Z,14.40
2022-10-20T15:26:02.897Z,7.45
2022-10-20T15:28:49.958Z,12.65
2022-10-20T15:31:21.007Z,11.35
2022-10-20T15:33:47.736Z,11.35
2022-10-20T15:36:20.357Z,9.00
2022-10-20T15:38:50.969Z,8.88
2022-10-20T15:41:20.542Z,7.85
2022-10-20T15:43:47.036Z,11.77
2022-10-20T15:46:15.079Z,9.20
2022-10-20T15:48:43.188Z,10.23
2022-10-20T15:51:19.609Z,11.45
2022-10-20T15:53:48.517Z,11.07
2022-10-20T15:56:15.810Z,10.55
2022-10-20T15:58:42.421Z,14.73
2022-10-20T16:01:13.091Z,14.48
2022-10-20T16:03:41.362Z,9.75
2022-10-20T16:06:07.848Z,10.43
2022-10-20T16:08:35.443Z,11.52
2022-10-20T16:11:03.283Z,9.48
2022-10-20T16:13:33.016Z,10.38
2022-10-20T16:16:00.362Z,12.63
2022-10-20T16:18:26.893Z,10.88
2022-10-20T16:20:53.487Z,11.30
2022-10-20T16:23:19.999Z,11.65
2022-10-20T16:25:46.535Z,12.35
2022-10-20T16:28:13.034Z,16.45
2022-10-20T16:30:39.495Z,15.70
2022-10-20T16:33:06.124Z,15.93
2022-10-20T16:35:32.592Z,11.63
2022-10-20T16:37:59.144Z,13.32
2022-10-20T16:40:25.598Z,14.02
2022-10-20T16:42:52.034Z,13.10
2022-10-20T16:45:18.797Z,13.15
2022-10-20T16:47:45.292Z,12.15
2022-10-20T16:50:12.122Z,11.82
2022-10-20T16:52:38.603Z,14.40
2022-10-20T16:55:05.592Z,12.38
2022-10-20T16:57:38.567Z,11.70
2022-10-20T17:00:07.971Z,10.55
2022-10-20T17:02:35.729Z,11.40
2022-10-20T17:05:05.300Z,10.45
2022-10-20T17:07:35.114Z,8.50
2022-10-20T17:10:01.943Z,9.30
2022-10-20T17:12:28.468Z,9.60
2022-10-20T17:14:55.002Z,11.32
2022-10-20T17:17:21.478Z,13.75
2022-10-20T17:19:47.993Z,18.88
2022-10-20T17:22:14.513Z,20.20
2022-10-20T17:24:41.006Z,16.27
2022-10-20T17:27:07.810Z,13.95
2022-10-20T17:29:34.417Z,14.50
2022-10-20T17:32:00.943Z,18.15
2022-10-20T17:34:27.455Z,17.10
2022-10-20T17:36:53.883Z,19.05
2022-10-20T17:39:22.051Z,30.27
2022-10-20T17:41:48.606Z,28.42
2022-10-20T17:44:15.299Z,22.20
2022-10-20T17:46:43.261Z,16.45
2022-10-20T17:49:09.812Z,17.58
2022-10-20T17:51:36.343Z,11.30
2022-10-20T17:54:03.474Z,16.83
2022-10-20T17:56:32.483Z,12.00
2022-10-20T17:59:00.464Z,20.13
2022-10-20T18:01:28.239Z,10.90
2022-10-20T18:03:57.686Z,11.75
2022-10-20T18:06:29.938Z,11.23
2022-10-20T18:09:01.510Z,16.80
2022-10-20T18:11:30.466Z,12.20
2022-10-20T18:13:59.492Z,14.02
2022-10-20T18:16:28.171Z,17.63
2022-10-20T18:21:31.560Z,12.60
2022-10-20T18:24:02.361Z,12.13
2022-10-20T18:26:30.636Z,12.40
2022-10-20T18:28:59.439Z,11.82
2022-10-20T18:31:28.855Z,17.27
2022-10-20T18:33:59.415Z,13.48
2022-10-20T18:36:28.571Z,12.05
2022-10-20T18:38:55.368Z,14.38
2022-10-20T18:41:29.959Z,16.85
2022-10-20T18:44:01.235Z,13.98
2022-10-20T18:46:29.893Z,13.75
2022-10-20T18:48:57.973Z,12.40
2022-10-20T18:51:24.649Z,17.40
2022-10-20T18:53:56.222Z,16.25
2022-10-20T18:56:24.538Z,15.73
2022-10-20T18:58:59.886Z,15.80
2022-10-20T19:01:31.737Z,10.85
2022-10-20T19:03:59.905Z,13.27
2022-10-20T19:06:31.834Z,14.73
2022-10-20T19:09:07.034Z,15.27
2022-10-20T19:11:35.221Z,16.13
2022-10-20T19:14:02.050Z,15.35
2022-10-20T19:16:31.499Z,12.73
2022-10-20T19:19:02.081Z,10.38
2022-10-20T19:21:29.766Z,11.80
2022-10-20T19:24:03.151Z,13.23
2022-10-20T19:26:36.303Z,8.77
2022-10-20T19:29:07.502Z,12.45
2022-10-20T19:34:33.688Z,21.55
2022-10-20T19:37:01.690Z,12.05
2022-10-20T19:39:31.889Z,12.10
2022-10-20T19:42:00.159Z,14.88
2022-10-20T19:44:27.725Z,14.95
2022-10-20T19:46:54.642Z,18.23
2022-10-20T19:49:22.536Z,15.25
2022-10-20T19:51:49.282Z,16.33
2022-10-20T19:54:16.094Z,17.92
2022-10-20T19:56:42.768Z,16.08
2022-10-20T19:59:10.002Z,15.18
2022-10-20T20:01:37.447Z,17.13
2022-10-20T20:04:07.534Z,15.70
2022-10-20T20:06:35.011Z,16.95
2022-10-20T20:09:05.261Z,17.15
2022-10-20T20:11:32.233Z,20.25
2022-10-20T20:14:01.836Z,14.00
2022-10-20T20:16:29.343Z,14.60
2022-10-20T20:18:56.035Z,19.42
2022-10-20T20:21:23.574Z,16.08
2022-10-20T20:23:59.364Z,17.58
2022-10-20T20:26:30.918Z,15.00
2022-10-20T20:28:58.170Z,17.10
2022-10-20T20:31:26.309Z,16.55
2022-10-20T20:33:53.854Z,15.77
2022-10-20T20:36:20.876Z,18.52
2022-10-20T20:38:47.355Z,17.13
2022-10-20T20:41:16.508Z,16.58
2022-10-20T20:43:46.435Z,18.58
2022-10-20T20:46:15.975Z,16.27
2022-10-20T20:48:43.576Z,18.08
2022-10-20T20:51:11.371Z,18.00
2022-10-20T20:53:39.562Z,18.13
2022-10-20T20:56:19.562Z,18.33
2022-10-20T20:58:49.052Z,20.27
2022-10-20T21:01:15.588Z,17.25
2022-10-20T21:03:43.372Z,17.33
2022-10-20T21:06:12.312Z,16.70
2022-10-20T21:08:41.576Z,21.10
2022-10-20T21:11:09.222Z,13.52
2022-10-20T21:13:35.894Z,17.73
2022-10-20T21:16:15.451Z,18.13
2022-10-20T21:18:44.776Z,16.85
2022-10-20T21:21:16.894Z,16.02
2022-10-20T21:23:43.755Z,16.58
2022-10-20T21:26:12.890Z,18.80
2022-10-20T21:28:39.698Z,18.80
2022-10-20T21:31:07.742Z,15.63
2022-10-20T21:33:35.632Z,23.25
2022-10-20T21:36:04.268Z,17.92
2022-10-20T21:38:32.236Z,16.98
2022-10-20T21:41:07.465Z,18.92
2022-10-20T21:43:35.306Z,22.08
2022-10-20T21:46:28.947Z,18.15
2022-10-20T21:48:59.601Z,20.25
2022-10-20T21:51:29.269Z,20.52
2022-10-20T21:53:57.666Z,20.27
2022-10-20T21:56:25.063Z,16.58
2022-10-20T21:58:52.276Z,18.45
2022-10-20T22:01:21.266Z,22.50
2022-10-20T22:03:49.095Z,17.25
2022-10-20T22:06:19.625Z,14.57
2022-10-20T22:08:49.208Z,15.05
2022-10-20T22:11:19.746Z,16.30
2022-10-20T22:13:47.137Z,16.02
2022-10-20T22:16:16.338Z,15.18
2022-10-20T22:18:42.872Z,16.63
2022-10-20T22:21:13.692Z,22.02
2022-10-20T22:23:41.228Z,20.13
2022-10-20T22:26:08.318Z,20.80
2022-10-20T22:28:34.850Z,19.92
2022-10-20T22:33:33.021Z,19.17
2022-10-20T22:35:59.517Z,22.88
2022-10-20T22:38:26.054Z,16.45
2022-10-20T22:40:52.538Z,22.35
2022-10-20T22:43:18.976Z,22.92
2022-10-20T22:45:45.488Z,13.40
2022-10-20T22:48:11.910Z,16.90
2022-10-20T22:50:38.608Z,13.52
2022-10-20T22:53:05.046Z,12.20
2022-10-20T22:55:31.489Z,15.15
2022-10-20T23:00:25.631Z,12.77
2022-10-20T23:02:52.121Z,11.43
2022-10-20T23:05:18.642Z,10.75
2022-10-20T23:07:45.203Z,11.07
2022-10-20T23:10:11.725Z,12.80
2022-10-20T23:12:38.522Z,12.15
2022-10-20T23:15:06.334Z,12.95
2022-10-20T23:17:32.994Z,15.32
2022-10-20T23:19:59.498Z,14.40
2022-10-20T23:22:25.984Z,13.35
2022-10-20T23:24:52.523Z,13.05
2022-10-20T23:27:19.036Z,14.30
2022-10-20T23:29:45.511Z,13.23
2022-10-20T23:32:12.024Z,11.75
2022-10-20T23:34:38.471Z,12.05
2022-10-20T23:37:05.028Z,12.50
2022-10-20T23:39:31.481Z,14.45
2022-10-20T23:41:58.149Z,12.55
2022-10-20T23:44:24.624Z,9.82
2022-10-20T23:46:51.951Z,13.48
2022-10-20T23:49:18.437Z,10.27
2022-10-20T23:51:44.939Z,11.73
2022-10-20T23:54:11.750Z,12.48
2022-10-20T23:56:38.225Z,11.82
2022-10-20T23:59:04.696Z,11.20
